Clarion, IA

4:00 PM CDT on March 23, 2017 (GMT -0500)
Clarion Municipal

Weather History for KCAV - February, 2013

Change the Weather History Date:

Thursday, February 14, 2013

  Actual Average Record
Temperature  
Mean Temperature 27 °F -  
Max Temperature 35 °F 29 °F 60 °F (1954)
Min Temperature 17 °F 13 °F -14 °F (1951)
Degree Days  
Heating Degree Days 38    
Moisture  
Dew Point 26 °F    
Average Humidity 85    
Maximum Humidity 100    
Minimum Humidity 68    
Precipitation  
Precipitation 0.02 in - - ()
Sea Level Pressure  
Sea Level Pressure 29.90 in    
Wind  
Wind Speed 17 mph (NW)    
Max Wind Speed 25 mph    
Max Gust Speed 33 mph    
Visibility 8 miles    
Events Snow    
Averages and records for this station are not official NWS values.
T = Trace of Precipitation, MM = Missing Value Source: NWS Daily Summary

Daily Weather History Graph

Daily Weather History Graph

Search for Another Location

Airport or City:

Trip Planner

Search our weather history database for the weather conditions in past years. The results will help you decide how hot, cold, wet, or windy it might be!

Date:

Astronomy

Feb. 14, 2013 Rise Set
Actual Time 7:13 AM CST 5:45 PM CST
Civil Twilight 6:44 AM CST 6:14 PM CST
Nautical Twilight 6:11 AM CST 6:48 PM CST
Astronomical Twilight 5:38 AM CST 7:20 PM CST
Moon 9:07 AM CST (2/14) 10:58 PM CST (2/14)
Length of Visible Light 11h 30m
Length of Day
10h 32m
Waxing Crescent, 22% of the Moon is Illuminated
Feb 14
Waxing Crescent
Feb 17
First Quarter
Feb 25
Full
Mar 4
Last Quarter
Mar 11
New

Hourly Weather History & Observations

Time (CST) Temp. Windchill Dew Point Humidity Pressure Visibility Wind Dir Wind Speed Gust Speed Precip Events Conditions
12:15 AM 35.6 °F 25.5 °F 32.0 °F 87% 29.66 in 10.0 mi West 17.3 mph - N/A   Mostly Cloudy
12:35 AM 35.6 °F 26.6 °F 32.0 °F 87% 29.66 in 10.0 mi West 13.8 mph 26.5 mph N/A   Overcast
12:55 AM 35.6 °F 27.1 °F 32.0 °F 87% 29.66 in 10.0 mi West 12.7 mph - N/A   Overcast
1:15 AM 35.6 °F 25.2 °F 32.0 °F 87% 29.66 in 10.0 mi WNW 18.4 mph 24.2 mph N/A   Overcast
1:35 AM 35.6 °F 26.2 °F 32.0 °F 87% 29.66 in 10.0 mi West 15.0 mph 21.9 mph N/A   Overcast
1:55 AM 35.6 °F 25.5 °F 32.0 °F 87% 29.66 in 10.0 mi West 17.3 mph 23.0 mph N/A   Overcast
2:15 AM 35.6 °F 25.9 °F 32.0 °F 87% 29.67 in 10.0 mi NW 16.1 mph 24.2 mph N/A   Overcast
2:35 AM 33.8 °F 22.5 °F 30.2 °F 87% 29.68 in 10.0 mi NW 19.6 mph 26.5 mph N/A   Overcast
2:55 AM 33.8 °F 22.5 °F 28.4 °F 81% 29.69 in 10.0 mi NW 19.6 mph 27.6 mph N/A   Overcast
3:15 AM 33.8 °F 21.6 °F 28.4 °F 81% 29.69 in 10.0 mi WNW 23.0 mph 32.2 mph N/A   Overcast
3:35 AM 33.8 °F 22.8 °F 30.2 °F 87% 29.70 in 10.0 mi WNW 18.4 mph 26.5 mph N/A   Overcast
3:55 AM 33.8 °F 21.6 °F 30.2 °F 87% 29.71 in 10.0 mi NW 23.0 mph 32.2 mph N/A   Overcast
4:15 AM 32.0 °F 18.6 °F 30.2 °F 93% 29.72 in 10.0 mi NW 25.3 mph 32.2 mph N/A   Overcast
4:35 AM 32.0 °F 18.9 °F 28.4 °F 87% 29.73 in 10.0 mi NNW 24.2 mph 33.4 mph N/A   Overcast
4:55 AM 32.0 °F 19.8 °F 28.4 °F 87% 29.74 in 10.0 mi NW 20.7 mph 29.9 mph N/A   Overcast
5:15 AM 32.0 °F 19.5 °F 30.2 °F 93% 29.76 in 10.0 mi NW 21.9 mph 32.2 mph N/A   Overcast
5:35 AM 32.0 °F 19.5 °F 30.2 °F 93% 29.76 in 9.0 mi NW 21.9 mph 28.8 mph N/A   Overcast
5:55 AM 32.0 °F 19.5 °F 28.4 °F 87% 29.77 in 10.0 mi NW 21.9 mph - N/A   Overcast
6:15 AM 32.0 °F 19.8 °F 30.2 °F 93% 29.78 in 9.0 mi NW 20.7 mph - N/A   Overcast
6:35 AM 32.0 °F 19.2 °F 28.4 °F 87% 29.78 in 7.0 mi NW 23.0 mph - N/A   Overcast
6:55 AM 32.0 °F 19.5 °F 28.4 °F 87% 29.80 in 8.0 mi NW 21.9 mph - N/A   Overcast
7:15 AM 32.0 °F 19.2 °F 30.2 °F 93% 29.81 in 6.0 mi NW 23.0 mph - N/A   Overcast
7:35 AM 32.0 °F 19.8 °F 30.2 °F 93% 29.82 in 5.0 mi NW 20.7 mph - N/A   Overcast
7:55 AM 32.0 °F 20.5 °F 28.4 °F 87% 29.83 in 6.0 mi NW 18.4 mph 25.3 mph N/A   Overcast
8:15 AM 32.0 °F 20.5 °F 28.4 °F 87% 29.83 in 6.0 mi NW 18.4 mph 24.2 mph N/A   Overcast
8:35 AM 32.0 °F 21.2 °F 30.2 °F 93% 29.85 in 6.0 mi NW 16.1 mph - N/A   Overcast
8:55 AM 32.0 °F 22.1 °F 28.4 °F 87% 29.85 in 8.0 mi NW 13.8 mph 21.9 mph N/A   Overcast
9:15 AM 32.0 °F 22.5 °F 28.4 °F 87% 29.86 in 8.0 mi NW 12.7 mph 18.4 mph N/A   Overcast
9:35 AM 32.0 °F 22.1 °F 28.4 °F 87% 29.87 in 9.0 mi NNW 13.8 mph - N/A   Overcast
9:55 AM 32.0 °F 21.6 °F 28.4 °F 87% 29.88 in 9.0 mi WNW 15.0 mph - N/A   Overcast
10:15 AM 32.0 °F 22.1 °F 28.4 °F 87% 29.88 in 8.0 mi NW 13.8 mph - N/A   Overcast
10:35 AM 32.0 °F 23.6 °F 28.4 °F 87% 29.89 in 8.0 mi WNW 10.4 mph - N/A   Overcast
10:55 AM 32.0 °F 23.0 °F 28.4 °F 87% 29.89 in 9.0 mi NW 11.5 mph - N/A   Overcast
11:15 AM 32.0 °F 24.8 °F 28.4 °F 87% 29.89 in 9.0 mi NW 8.1 mph 13.8 mph N/A   Overcast
11:35 AM 32.0 °F 24.2 °F 28.4 °F 87% 29.89 in 9.0 mi WNW 9.2 mph - N/A   Overcast
11:55 AM 32.0 °F 24.8 °F 28.4 °F 87% 29.89 in 9.0 mi NW 8.1 mph - N/A   Overcast
12:15 PM 33.8 °F 25.8 °F 30.2 °F 87% 29.90 in 9.0 mi WNW 10.4 mph - N/A   Overcast
12:35 PM 32.0 °F 24.8 °F 30.2 °F 93% 29.90 in 0.5 mi WNW 8.1 mph - N/A Snow Light Snow
12:55 PM 32.0 °F 23.0 °F 30.2 °F 93% 29.90 in 2.0 mi WNW 11.5 mph - N/A Snow Light Snow
1:15 PM 32.0 °F 23.0 °F 30.2 °F 93% 29.90 in 4.0 mi WNW 11.5 mph - N/A Snow Light Snow
1:35 PM 32.0 °F 23.0 °F 30.2 °F 93% 29.90 in 3.0 mi West 11.5 mph - N/A Snow Light Snow
1:55 PM 32.0 °F 23.0 °F 30.2 °F 93% 29.89 in 1.8 mi WNW 11.5 mph - 0.01 in Snow Light Snow
2:15 PM 32.0 °F 23.0 °F 30.2 °F 93% 29.90 in 1.2 mi NW 11.5 mph 17.3 mph N/A Snow Light Snow
2:35 PM 32.0 °F 23.6 °F 30.2 °F 93% 29.91 in 3.0 mi NW 10.4 mph - N/A Snow Light Snow
2:55 PM 32.0 °F 22.1 °F 30.2 °F 93% 29.92 in 2.0 mi NNW 13.8 mph - 0.01 in Snow Light Snow
3:15 PM 30.2 °F 19.8 °F 30.2 °F 100% 29.93 in 0.5 mi NNW 13.8 mph - N/A Snow Light Snow
3:35 PM 30.2 °F 19.8 °F 28.4 °F 93% 29.95 in 0.5 mi NNW 13.8 mph 21.9 mph N/A Snow Light Snow
3:55 PM 30.2 °F 19.8 °F 28.4 °F 93% 29.96 in 0.8 mi NNW 13.8 mph - N/A Snow Light Snow
4:15 PM 30.2 °F 19.8 °F 28.4 °F 93% 29.97 in 10.0 mi NNW 13.8 mph - N/A   Scattered Clouds
4:35 PM 30.2 °F 18.5 °F 26.6 °F 86% 29.98 in 10.0 mi NNW 17.3 mph - N/A   Mostly Cloudy
4:55 PM 30.2 °F 17.4 °F 26.6 °F 86% 29.99 in 10.0 mi NW 20.7 mph - N/A   Overcast
5:15 PM 30.2 °F 19.8 °F 24.8 °F 80% 30.01 in 10.0 mi NW 13.8 mph 23.0 mph N/A   Mostly Cloudy
5:35 PM 28.4 °F 15.4 °F 23.0 °F 80% 30.02 in 10.0 mi NW 19.6 mph - N/A   Mostly Cloudy
5:55 PM 30.2 °F 18.5 °F 24.8 °F 80% 30.03 in 10.0 mi NW 17.3 mph 23.0 mph N/A   Overcast
6:15 PM 28.4 °F 15.8 °F 23.0 °F 80% 30.04 in 10.0 mi NNW 18.4 mph 25.3 mph N/A   Overcast
6:35 PM 26.6 °F 13.8 °F 21.2 °F 80% 30.05 in 10.0 mi NW 17.3 mph - N/A   Overcast
6:55 PM 26.6 °F 13.4 °F 19.4 °F 74% 30.07 in 10.0 mi NNW 18.4 mph - N/A   Partly Cloudy
7:15 PM 26.6 °F 15.2 °F 19.4 °F 74% 30.08 in 10.0 mi NNW 13.8 mph 19.6 mph N/A   Clear
7:35 PM 24.8 °F 10.7 °F 17.6 °F 74% 30.08 in 10.0 mi NNW 19.6 mph 28.8 mph N/A   Clear
7:55 PM 24.8 °F 11.5 °F 17.6 °F 74% 30.09 in 10.0 mi NNW 17.3 mph 25.3 mph N/A   Partly Cloudy
8:15 PM 23.0 °F 9.2 °F 15.8 °F 74% 30.10 in 10.0 mi NNW 17.3 mph 28.8 mph N/A   Partly Cloudy
8:35 PM 23.0 °F 9.6 °F 14.0 °F 68% 30.11 in 10.0 mi NNW 16.1 mph 25.3 mph N/A   Clear
8:55 PM 23.0 °F 8.0 °F 14.0 °F 68% 30.11 in 10.0 mi NNW 20.7 mph 31.1 mph N/A   Clear
9:15 PM 23.0 °F 8.7 °F 14.0 °F 68% 30.13 in 10.0 mi NNW 18.4 mph 26.5 mph N/A   Clear
9:35 PM 21.2 °F 7.3 °F 12.2 °F 68% 30.13 in 10.0 mi NNW 16.1 mph 26.5 mph N/A   Clear
9:55 PM 21.2 °F 6.4 °F 14.0 °F 74% 30.14 in 10.0 mi NNW 18.4 mph 25.3 mph N/A   Clear
10:15 PM 21.2 °F 6.4 °F 12.2 °F 68% 30.15 in 10.0 mi NNW 18.4 mph 28.8 mph N/A   Clear
10:35 PM 21.2 °F 6.8 °F 14.0 °F 74% 30.15 in 10.0 mi NNW 17.3 mph 24.2 mph N/A   Clear
10:55 PM 19.4 °F 4.5 °F 12.2 °F 74% 30.16 in 10.0 mi NNW 17.3 mph - N/A   Clear
11:15 PM 19.4 °F 5.0 °F 12.2 °F 74% 30.16 in 10.0 mi NNW 16.1 mph - N/A   Clear
11:35 PM 19.4 °F 5.5 °F 12.2 °F 74% 30.17 in 10.0 mi NNW 15.0 mph 23.0 mph N/A   Clear
11:55 PM 17.6 °F 3.2 °F 10.4 °F 73% 30.17 in 10.0 mi NNW 15.0 mph 25.3 mph N/A   Clear